sensor_id;sensor_type;location;lat;lon;timestamp;P1;durP1;ratioP1;P2;durP2;ratioP2
4738;SDS011;2383;48.632;10.156;2023-10-13T00:01:43;10.77;;;4.55;;
4738;SDS011;2383;48.632;10.156;2023-10-13T00:05:45;11.73;;;5.32;;
4738;SDS011;2383;48.632;10.156;2023-10-13T00:09:49;7.72;;;5.22;;
4738;SDS011;2383;48.632;10.156;2023-10-13T00:13:50;6.35;;;4.68;;
4738;SDS011;2383;48.632;10.156;2023-10-13T00:17:53;10.02;;;5.18;;
4738;SDS011;2383;48.632;10.156;2023-10-13T00:21:56;11.45;;;5.18;;
4738;SDS011;2383;48.632;10.156;2023-10-13T00:26:10;8.90;;;5.30;;
4738;SDS011;2383;48.632;10.156;2023-10-13T00:30:12;10.90;;;4.85;;
4738;SDS011;2383;48.632;10.156;2023-10-13T00:34:17;9.88;;;5.03;;
4738;SDS011;2383;48.632;10.156;2023-10-13T00:38:19;11.15;;;5.35;;
4738;SDS011;2383;48.632;10.156;2023-10-13T00:42:24;8.73;;;4.80;;
4738;SDS011;2383;48.632;10.156;2023-10-13T00:46:49;6.32;;;5.00;;
4738;SDS011;2383;48.632;10.156;2023-10-13T00:51:02;10.90;;;5.70;;
4738;SDS011;2383;48.632;10.156;2023-10-13T00:55:07;15.05;;;5.38;;
4738;SDS011;2383;48.632;10.156;2023-10-13T00:59:11;10.70;;;5.35;;
4738;SDS011;2383;48.632;10.156;2023-10-13T01:03:15;9.88;;;5.50;;
4738;SDS011;2383;48.632;10.156;2023-10-13T01:07:17;9.05;;;5.25;;
4738;SDS011;2383;48.632;10.156;2023-10-13T01:11:23;9.63;;;5.80;;
4738;SDS011;2383;48.632;10.156;2023-10-13T01:15:25;7.30;;;5.20;;
4738;SDS011;2383;48.632;10.156;2023-10-13T01:19:37;9.73;;;5.07;;
4738;SDS011;2383;48.632;10.156;2023-10-13T01:23:44;11.75;;;5.38;;
4738;SDS011;2383;48.632;10.156;2023-10-13T01:27:48;7.32;;;4.75;;
4738;SDS011;2383;48.632;10.156;2023-10-13T01:31:50;8.48;;;5.22;;
4738;SDS011;2383;48.632;10.156;2023-10-13T01:35:55;10.50;;;4.70;;
4738;SDS011;2383;48.632;10.156;2023-10-13T01:39:59;14.10;;;5.30;;
4738;SDS011;2383;48.632;10.156;2023-10-13T01:44:01;6.65;;;4.35;;
4738;SDS011;2383;48.632;10.156;2023-10-13T01:48:03;5.75;;;4.53;;
4738;SDS011;2383;48.632;10.156;2023-10-13T01:52:06;9.38;;;5.00;;
4738;SDS011;2383;48.632;10.156;2023-10-13T01:56:12;7.35;;;4.53;;
4738;SDS011;2383;48.632;10.156;2023-10-13T02:00:15;10.77;;;4.82;;
4738;SDS011;2383;48.632;10.156;2023-10-13T02:04:21;8.43;;;4.57;;
4738;SDS011;2383;48.632;10.156;2023-10-13T02:08:23;15.18;;;5.93;;
4738;SDS011;2383;48.632;10.156;2023-10-13T02:12:26;10.48;;;4.82;;
4738;SDS011;2383;48.632;10.156;2023-10-13T02:16:38;5.80;;;4.30;;
4738;SDS011;2383;48.632;10.156;2023-10-13T02:20:41;5.70;;;4.30;;
4738;SDS011;2383;48.632;10.156;2023-10-13T02:24:44;8.80;;;4.25;;
4738;SDS011;2383;48.632;10.156;2023-10-13T02:28:51;7.95;;;4.40;;
4738;SDS011;2383;48.632;10.156;2023-10-13T02:32:54;12.93;;;4.13;;
4738;SDS011;2383;48.632;10.156;2023-10-13T02:36:57;6.95;;;4.72;;
4738;SDS011;2383;48.632;10.156;2023-10-13T02:40:59;9.70;;;5.03;;
4738;SDS011;2383;48.632;10.156;2023-10-13T02:45:07;7.63;;;4.07;;
4738;SDS011;2383;48.632;10.156;2023-10-13T02:49:13;10.38;;;5.10;;
4738;SDS011;2383;48.632;10.156;2023-10-13T02:53:15;7.32;;;4.65;;
4738;SDS011;2383;48.632;10.156;2023-10-13T02:57:20;7.22;;;4.53;;
4738;SDS011;2383;48.632;10.156;2023-10-13T03:01:24;8.30;;;4.55;;
4738;SDS011;2383;48.632;10.156;2023-10-13T03:05:34;9.05;;;4.55;;
4738;SDS011;2383;48.632;10.156;2023-10-13T03:09:37;8.32;;;5.07;;
4738;SDS011;2383;48.632;10.156;2023-10-13T03:13:39;7.55;;;4.25;;
4738;SDS011;2383;48.632;10.156;2023-10-13T03:17:46;7.15;;;4.00;;
4738;SDS011;2383;48.632;10.156;2023-10-13T03:21:48;5.22;;;4.50;;
4738;SDS011;2383;48.632;10.156;2023-10-13T03:25:56;5.95;;;4.20;;
4738;SDS011;2383;48.632;10.156;2023-10-13T03:30:01;8.77;;;4.40;;
4738;SDS011;2383;48.632;10.156;2023-10-13T03:34:10;11.20;;;4.45;;
4738;SDS011;2383;48.632;10.156;2023-10-13T03:38:13;6.80;;;3.97;;
4738;SDS011;2383;48.632;10.156;2023-10-13T03:42:19;11.75;;;5.03;;
4738;SDS011;2383;48.632;10.156;2023-10-13T03:46:23;7.50;;;4.18;;
4738;SDS011;2383;48.632;10.156;2023-10-13T03:50:25;8.55;;;4.65;;
4738;SDS011;2383;48.632;10.156;2023-10-13T03:54:33;7.50;;;5.35;;
4738;SDS011;2383;48.632;10.156;2023-10-13T03:58:36;10.18;;;5.00;;
4738;SDS011;2383;48.632;10.156;2023-10-13T04:02:48;10.88;;;4.80;;
4738;SDS011;2383;48.632;10.156;2023-10-13T04:07:08;7.35;;;4.60;;
4738;SDS011;2383;48.632;10.156;2023-10-13T04:11:09;9.15;;;4.82;;
4738;SDS011;2383;48.632;10.156;2023-10-13T04:15:30;7.63;;;4.93;;
4738;SDS011;2383;48.632;10.156;2023-10-13T04:19:42;7.93;;;5.38;;
4738;SDS011;2383;48.632;10.156;2023-10-13T04:24:06;8.15;;;4.93;;
4738;SDS011;2383;48.632;10.156;2023-10-13T04:28:19;7.88;;;4.93;;
4738;SDS011;2383;48.632;10.156;2023-10-13T04:32:30;8.40;;;4.55;;
4738;SDS011;2383;48.632;10.156;2023-10-13T04:36:40;12.07;;;5.68;;
4738;SDS011;2383;48.632;10.156;2023-10-13T04:40:46;10.02;;;5.68;;
4738;SDS011;2383;48.632;10.156;2023-10-13T04:45:03;8.82;;;4.45;;
4738;SDS011;2383;48.632;10.156;2023-10-13T04:49:18;10.75;;;4.47;;
4738;SDS011;2383;48.632;10.156;2023-10-13T04:53:29;12.13;;;4.47;;
4738;SDS011;2383;48.632;10.156;2023-10-13T04:57:35;8.07;;;4.43;;
4738;SDS011;2383;48.632;10.156;2023-10-13T05:01:54;8.10;;;4.60;;
4738;SDS011;2383;48.632;10.156;2023-10-13T05:05:59;11.38;;;4.93;;
4738;SDS011;2383;48.632;10.156;2023-10-13T05:10:21;11.55;;;4.85;;
4738;SDS011;2383;48.632;10.156;2023-10-13T05:14:42;17.73;;;5.13;;
4738;SDS011;2383;48.632;10.156;2023-10-13T05:19:03;11.23;;;4.53;;
4738;SDS011;2383;48.632;10.156;2023-10-13T05:23:24;13.88;;;5.95;;
4738;SDS011;2383;48.632;10.156;2023-10-13T05:27:44;13.25;;;6.07;;
4738;SDS011;2383;48.632;10.156;2023-10-13T05:32:08;15.05;;;5.93;;
4738;SDS011;2383;48.632;10.156;2023-10-13T05:36:29;9.13;;;5.40;;
4738;SDS011;2383;48.632;10.156;2023-10-13T05:45:12;13.00;;;4.97;;
4738;SDS011;2383;48.632;10.156;2023-10-13T05:49:17;19.73;;;6.75;;
4738;SDS011;2383;48.632;10.156;2023-10-13T05:53:19;15.85;;;5.82;;
4738;SDS011;2383;48.632;10.156;2023-10-13T05:57:39;15.45;;;5.18;;
4738;SDS011;2383;48.632;10.156;2023-10-13T06:02:00;22.15;;;5.10;;
4738;SDS011;2383;48.632;10.156;2023-10-13T06:06:20;14.90;;;6.05;;
4738;SDS011;2383;48.632;10.156;2023-10-13T06:10:41;27.08;;;5.72;;
4738;SDS011;2383;48.632;10.156;2023-10-13T06:15:03;24.75;;;6.35;;
4738;SDS011;2383;48.632;10.156;2023-10-13T06:19:23;29.77;;;9.30;;
4738;SDS011;2383;48.632;10.156;2023-10-13T06:23:44;38.70;;;14.40;;
4738;SDS011;2383;48.632;10.156;2023-10-13T06:28:04;22.98;;;7.90;;
4738;SDS011;2383;48.632;10.156;2023-10-13T06:32:25;16.50;;;6.80;;
4738;SDS011;2383;48.632;10.156;2023-10-13T06:36:27;20.35;;;7.60;;
4738;SDS011;2383;48.632;10.156;2023-10-13T06:40:29;21.15;;;7.22;;
4738;SDS011;2383;48.632;10.156;2023-10-13T06:44:38;19.80;;;7.70;;
4738;SDS011;2383;48.632;10.156;2023-10-13T06:48:41;15.45;;;7.28;;
4738;SDS011;2383;48.632;10.156;2023-10-13T06:52:44;13.95;;;7.15;;
4738;SDS011;2383;48.632;10.156;2023-10-13T06:56:48;16.70;;;7.35;;
4738;SDS011;2383;48.632;10.156;2023-10-13T07:00:54;19.10;;;8.75;;
4738;SDS011;2383;48.632;10.156;2023-10-13T07:04:56;22.63;;;8.77;;
4738;SDS011;2383;48.632;10.156;2023-10-13T07:09:09;26.67;;;10.02;;
4738;SDS011;2383;48.632;10.156;2023-10-13T07:13:29;24.33;;;8.90;;
4738;SDS011;2383;48.632;10.156;2023-10-13T07:17:31;20.73;;;8.77;;
4738;SDS011;2383;48.632;10.156;2023-10-13T07:21:39;19.13;;;7.85;;
4738;SDS011;2383;48.632;10.156;2023-10-13T07:25:53;17.27;;;9.35;;
4738;SDS011;2383;48.632;10.156;2023-10-13T07:30:02;25.65;;;11.05;;
4738;SDS011;2383;48.632;10.156;2023-10-13T07:34:15;27.98;;;10.55;;
4738;SDS011;2383;48.632;10.156;2023-10-13T07:38:33;21.58;;;9.05;;
4738;SDS011;2383;48.632;10.156;2023-10-13T07:42:39;17.77;;;7.88;;
4738;SDS011;2383;48.632;10.156;2023-10-13T07:46:41;12.02;;;7.72;;
4738;SDS011;2383;48.632;10.156;2023-10-13T07:50:58;14.95;;;8.05;;
4738;SDS011;2383;48.632;10.156;2023-10-13T07:55:03;20.55;;;7.82;;
4738;SDS011;2383;48.632;10.156;2023-10-13T07:59:21;14.25;;;7.78;;
4738;SDS011;2383;48.632;10.156;2023-10-13T08:03:25;13.63;;;7.90;;
4738;SDS011;2383;48.632;10.156;2023-10-13T08:07:36;16.85;;;8.13;;
4738;SDS011;2383;48.632;10.156;2023-10-13T08:11:41;17.80;;;7.63;;
4738;SDS011;2383;48.632;10.156;2023-10-13T08:15:43;17.15;;;7.03;;
4738;SDS011;2383;48.632;10.156;2023-10-13T08:19:49;13.55;;;6.30;;
4738;SDS011;2383;48.632;10.156;2023-10-13T08:23:51;13.35;;;7.05;;
4738;SDS011;2383;48.632;10.156;2023-10-13T08:27:56;13.27;;;6.78;;
4738;SDS011;2383;48.632;10.156;2023-10-13T08:32:28;14.57;;;6.93;;
4738;SDS011;2383;48.632;10.156;2023-10-13T08:36:31;17.40;;;6.75;;
4738;SDS011;2383;48.632;10.156;2023-10-13T08:40:33;12.80;;;5.72;;
4738;SDS011;2383;48.632;10.156;2023-10-13T08:44:55;12.93;;;5.10;;
4738;SDS011;2383;48.632;10.156;2023-10-13T08:48:58;9.88;;;5.07;;
4738;SDS011;2383;48.632;10.156;2023-10-13T08:57:29;14.20;;;5.45;;
4738;SDS011;2383;48.632;10.156;2023-10-13T09:01:35;12.32;;;4.40;;
4738;SDS011;2383;48.632;10.156;2023-10-13T09:05:50;8.10;;;4.35;;
4738;SDS011;2383;48.632;10.156;2023-10-13T09:10:08;11.18;;;4.32;;
4738;SDS011;2383;48.632;10.156;2023-10-13T09:14:13;9.45;;;4.20;;
4738;SDS011;2383;48.632;10.156;2023-10-13T09:18:34;9.98;;;3.60;;
4738;SDS011;2383;48.632;10.156;2023-10-13T09:23:07;11.73;;;3.83;;
4738;SDS011;2383;48.632;10.156;2023-10-13T09:27:34;16.90;;;3.97;;
4738;SDS011;2383;48.632;10.156;2023-10-13T09:31:39;7.80;;;3.40;;
4738;SDS011;2383;48.632;10.156;2023-10-13T09:35:44;10.60;;;3.30;;
4738;SDS011;2383;48.632;10.156;2023-10-13T09:39:52;10.73;;;3.10;;
4738;SDS011;2383;48.632;10.156;2023-10-13T09:43:54;9.38;;;3.30;;
4738;SDS011;2383;48.632;10.156;2023-10-13T09:48:01;9.35;;;3.45;;
4738;SDS011;2383;48.632;10.156;2023-10-13T09:52:24;10.00;;;3.65;;
4738;SDS011;2383;48.632;10.156;2023-10-13T09:56:28;14.07;;;3.83;;
4738;SDS011;2383;48.632;10.156;2023-10-13T10:00:33;6.53;;;3.10;;
4738;SDS011;2383;48.632;10.156;2023-10-13T10:04:54;9.18;;;2.88;;
4738;SDS011;2383;48.632;10.156;2023-10-13T10:09:29;10.82;;;3.50;;
4738;SDS011;2383;48.632;10.156;2023-10-13T10:18:23;12.23;;;3.30;;
4738;SDS011;2383;48.632;10.156;2023-10-13T10:22:29;13.30;;;3.70;;
4738;SDS011;2383;48.632;10.156;2023-10-13T10:26:37;8.00;;;2.95;;
4738;SDS011;2383;48.632;10.156;2023-10-13T10:30:39;9.20;;;3.25;;
4738;SDS011;2383;48.632;10.156;2023-10-13T10:34:43;7.93;;;3.25;;
4738;SDS011;2383;48.632;10.156;2023-10-13T10:38:55;5.90;;;3.08;;
4738;SDS011;2383;48.632;10.156;2023-10-13T10:43:02;8.38;;;3.03;;
4738;SDS011;2383;48.632;10.156;2023-10-13T10:47:29;7.95;;;3.40;;
4738;SDS011;2383;48.632;10.156;2023-10-13T10:51:33;7.60;;;3.13;;
4738;SDS011;2383;48.632;10.156;2023-10-13T10:55:45;12.52;;;3.00;;
4738;SDS011;2383;48.632;10.156;2023-10-13T10:59:47;5.53;;;2.83;;
4738;SDS011;2383;48.632;10.156;2023-10-13T11:04:00;5.85;;;3.17;;
4738;SDS011;2383;48.632;10.156;2023-10-13T11:08:25;12.82;;;3.25;;
4738;SDS011;2383;48.632;10.156;2023-10-13T11:12:33;9.05;;;3.00;;
4738;SDS011;2383;48.632;10.156;2023-10-13T11:16:38;8.60;;;3.13;;
4738;SDS011;2383;48.632;10.156;2023-10-13T11:20:55;9.68;;;2.90;;
4738;SDS011;2383;48.632;10.156;2023-10-13T11:25:01;6.80;;;3.22;;
4738;SDS011;2383;48.632;10.156;2023-10-13T11:29:11;7.68;;;2.75;;
4738;SDS011;2383;48.632;10.156;2023-10-13T11:33:12;8.57;;;3.25;;
4738;SDS011;2383;48.632;10.156;2023-10-13T11:37:19;10.40;;;3.00;;
4738;SDS011;2383;48.632;10.156;2023-10-13T11:41:38;10.50;;;3.25;;
4738;SDS011;2383;48.632;10.156;2023-10-13T11:45:48;10.45;;;3.13;;
4738;SDS011;2383;48.632;10.156;2023-10-13T11:50:01;7.00;;;3.03;;
4738;SDS011;2383;48.632;10.156;2023-10-13T11:54:06;9.13;;;2.60;;
4738;SDS011;2383;48.632;10.156;2023-10-13T11:58:08;7.22;;;2.80;;
4738;SDS011;2383;48.632;10.156;2023-10-13T12:02:10;9.38;;;3.13;;
4738;SDS011;2383;48.632;10.156;2023-10-13T12:06:12;9.65;;;3.00;;
4738;SDS011;2383;48.632;10.156;2023-10-13T12:10:24;14.77;;;3.15;;
4738;SDS011;2383;48.632;10.156;2023-10-13T12:14:36;9.10;;;3.00;;
4738;SDS011;2383;48.632;10.156;2023-10-13T12:18:39;7.10;;;2.85;;
4738;SDS011;2383;48.632;10.156;2023-10-13T12:22:42;9.30;;;3.00;;
4738;SDS011;2383;48.632;10.156;2023-10-13T12:26:44;6.10;;;2.67;;
4738;SDS011;2383;48.632;10.156;2023-10-13T12:30:47;8.98;;;2.70;;
4738;SDS011;2383;48.632;10.156;2023-10-13T12:34:54;5.22;;;2.63;;
4738;SDS011;2383;48.632;10.156;2023-10-13T12:38:59;7.15;;;2.45;;
4738;SDS011;2383;48.632;10.156;2023-10-13T12:43:10;6.55;;;2.50;;
4738;SDS011;2383;48.632;10.156;2023-10-13T12:47:31;13.68;;;3.22;;
4738;SDS011;2383;48.632;10.156;2023-10-13T12:51:51;6.43;;;2.67;;
4738;SDS011;2383;48.632;10.156;2023-10-13T12:55:53;6.60;;;2.92;;
4738;SDS011;2383;48.632;10.156;2023-10-13T12:59:55;16.75;;;3.15;;
4738;SDS011;2383;48.632;10.156;2023-10-13T13:03:57;9.23;;;2.90;;
4738;SDS011;2383;48.632;10.156;2023-10-13T13:08:00;7.10;;;2.65;;
4738;SDS011;2383;48.632;10.156;2023-10-13T13:12:02;8.73;;;3.10;;
4738;SDS011;2383;48.632;10.156;2023-10-13T13:16:07;9.70;;;3.03;;
4738;SDS011;2383;48.632;10.156;2023-10-13T13:20:09;11.65;;;2.90;;
4738;SDS011;2383;48.632;10.156;2023-10-13T13:24:28;10.52;;;3.00;;
4738;SDS011;2383;48.632;10.156;2023-10-13T13:28:31;11.57;;;3.00;;
4738;SDS011;2383;48.632;10.156;2023-10-13T13:32:39;5.70;;;2.50;;
4738;SDS011;2383;48.632;10.156;2023-10-13T13:36:42;10.05;;;3.35;;
4738;SDS011;2383;48.632;10.156;2023-10-13T13:40:45;10.30;;;3.30;;
4738;SDS011;2383;48.632;10.156;2023-10-13T13:44:51;12.63;;;3.63;;
4738;SDS011;2383;48.632;10.156;2023-10-13T13:48:53;14.98;;;3.40;;
4738;SDS011;2383;48.632;10.156;2023-10-13T13:53:02;8.35;;;3.00;;
4738;SDS011;2383;48.632;10.156;2023-10-13T13:57:10;9.70;;;2.90;;
4738;SDS011;2383;48.632;10.156;2023-10-13T14:01:14;6.00;;;2.92;;
4738;SDS011;2383;48.632;10.156;2023-10-13T14:05:17;8.18;;;3.15;;
4738;SDS011;2383;48.632;10.156;2023-10-13T14:09:19;10.82;;;3.10;;
4738;SDS011;2383;48.632;10.156;2023-10-13T14:13:41;5.57;;;3.03;;
4738;SDS011;2383;48.632;10.156;2023-10-13T14:17:50;8.68;;;3.50;;
4738;SDS011;2383;48.632;10.156;2023-10-13T14:21:53;12.25;;;3.38;;
4738;SDS011;2383;48.632;10.156;2023-10-13T14:25:58;8.60;;;2.42;;
4738;SDS011;2383;48.632;10.156;2023-10-13T14:30:00;8.73;;;3.20;;
4738;SDS011;2383;48.632;10.156;2023-10-13T14:34:05;7.50;;;3.03;;
4738;SDS011;2383;48.632;10.156;2023-10-13T14:38:10;10.57;;;3.13;;
4738;SDS011;2383;48.632;10.156;2023-10-13T14:42:12;13.68;;;3.03;;
4738;SDS011;2383;48.632;10.156;2023-10-13T14:46:18;9.85;;;2.85;;
4738;SDS011;2383;48.632;10.156;2023-10-13T14:50:24;11.55;;;3.55;;
4738;SDS011;2383;48.632;10.156;2023-10-13T14:54:26;8.35;;;3.00;;
4738;SDS011;2383;48.632;10.156;2023-10-13T14:58:34;7.32;;;2.85;;
4738;SDS011;2383;48.632;10.156;2023-10-13T15:02:36;6.20;;;2.65;;
4738;SDS011;2383;48.632;10.156;2023-10-13T15:06:38;8.63;;;3.10;;
4738;SDS011;2383;48.632;10.156;2023-10-13T15:10:40;5.18;;;3.08;;
4738;SDS011;2383;48.632;10.156;2023-10-13T15:14:42;6.40;;;2.85;;
4738;SDS011;2383;48.632;10.156;2023-10-13T15:18:48;6.97;;;3.00;;
4738;SDS011;2383;48.632;10.156;2023-10-13T15:22:55;10.55;;;3.17;;
4738;SDS011;2383;48.632;10.156;2023-10-13T15:27:01;8.70;;;3.30;;
4738;SDS011;2383;48.632;10.156;2023-10-13T15:31:11;9.38;;;3.47;;
4738;SDS011;2383;48.632;10.156;2023-10-13T15:35:25;7.15;;;3.60;;
4738;SDS011;2383;48.632;10.156;2023-10-13T15:39:30;9.38;;;2.88;;
4738;SDS011;2383;48.632;10.156;2023-10-13T15:43:33;10.57;;;3.45;;
4738;SDS011;2383;48.632;10.156;2023-10-13T15:47:35;9.85;;;3.80;;
4738;SDS011;2383;48.632;10.156;2023-10-13T15:51:39;11.95;;;3.92;;
4738;SDS011;2383;48.632;10.156;2023-10-13T15:55:41;11.93;;;3.30;;
4738;SDS011;2383;48.632;10.156;2023-10-13T15:59:47;11.07;;;3.05;;
4738;SDS011;2383;48.632;10.156;2023-10-13T16:03:49;9.80;;;3.15;;
4738;SDS011;2383;48.632;10.156;2023-10-13T16:07:51;14.18;;;3.55;;
4738;SDS011;2383;48.632;10.156;2023-10-13T16:11:54;7.53;;;3.08;;
4738;SDS011;2383;48.632;10.156;2023-10-13T16:15:56;10.90;;;3.63;;
4738;SDS011;2383;48.632;10.156;2023-10-13T16:19:58;7.03;;;3.10;;
4738;SDS011;2383;48.632;10.156;2023-10-13T16:24:00;16.67;;;3.40;;
4738;SDS011;2383;48.632;10.156;2023-10-13T16:28:02;18.25;;;3.60;;
4738;SDS011;2383;48.632;10.156;2023-10-13T16:32:04;8.40;;;3.28;;
4738;SDS011;2383;48.632;10.156;2023-10-13T16:36:06;11.05;;;3.33;;
4738;SDS011;2383;48.632;10.156;2023-10-13T16:40:14;11.25;;;3.67;;
4738;SDS011;2383;48.632;10.156;2023-10-13T16:44:23;8.73;;;3.47;;
4738;SDS011;2383;48.632;10.156;2023-10-13T16:48:28;14.57;;;3.75;;
4738;SDS011;2383;48.632;10.156;2023-10-13T16:52:32;7.38;;;3.70;;
4738;SDS011;2383;48.632;10.156;2023-10-13T16:56:34;10.02;;;4.40;;
4738;SDS011;2383;48.632;10.156;2023-10-13T17:00:38;8.63;;;4.25;;
4738;SDS011;2383;48.632;10.156;2023-10-13T17:04:40;8.52;;;3.80;;
4738;SDS011;2383;48.632;10.156;2023-10-13T17:08:43;13.00;;;3.78;;
4738;SDS011;2383;48.632;10.156;2023-10-13T17:12:46;7.38;;;3.90;;
4738;SDS011;2383;48.632;10.156;2023-10-13T17:16:48;13.45;;;4.40;;
4738;SDS011;2383;48.632;10.156;2023-10-13T17:20:50;14.48;;;4.20;;
4738;SDS011;2383;48.632;10.156;2023-10-13T17:24:51;6.90;;;3.78;;
4738;SDS011;2383;48.632;10.156;2023-10-13T17:28:54;12.52;;;4.97;;
4738;SDS011;2383;48.632;10.156;2023-10-13T17:33:00;15.93;;;6.35;;
4738;SDS011;2383;48.632;10.156;2023-10-13T17:37:02;17.05;;;6.80;;
4738;SDS011;2383;48.632;10.156;2023-10-13T17:41:04;14.00;;;4.97;;
4738;SDS011;2383;48.632;10.156;2023-10-13T17:45:07;16.83;;;6.55;;
4738;SDS011;2383;48.632;10.156;2023-10-13T17:49:11;17.42;;;4.68;;
4738;SDS011;2383;48.632;10.156;2023-10-13T17:53:13;16.25;;;5.68;;
4738;SDS011;2383;48.632;10.156;2023-10-13T17:57:15;17.88;;;5.97;;
4738;SDS011;2383;48.632;10.156;2023-10-13T18:01:18;16.02;;;5.50;;
4738;SDS011;2383;48.632;10.156;2023-10-13T18:05:21;8.73;;;4.45;;
4738;SDS011;2383;48.632;10.156;2023-10-13T18:09:23;11.15;;;4.60;;
4738;SDS011;2383;48.632;10.156;2023-10-13T18:13:25;11.35;;;5.35;;
4738;SDS011;2383;48.632;10.156;2023-10-13T18:17:27;22.80;;;6.85;;
4738;SDS011;2383;48.632;10.156;2023-10-13T18:21:36;12.38;;;4.70;;
4738;SDS011;2383;48.632;10.156;2023-10-13T18:25:39;10.68;;;3.97;;
4738;SDS011;2383;48.632;10.156;2023-10-13T18:29:48;13.93;;;5.05;;
4738;SDS011;2383;48.632;10.156;2023-10-13T18:33:52;11.80;;;4.78;;
4738;SDS011;2383;48.632;10.156;2023-10-13T18:37:59;10.43;;;5.47;;
4738;SDS011;2383;48.632;10.156;2023-10-13T18:42:05;21.65;;;5.97;;
4738;SDS011;2383;48.632;10.156;2023-10-13T18:46:08;15.55;;;6.13;;
4738;SDS011;2383;48.632;10.156;2023-10-13T18:50:12;15.38;;;7.78;;
4738;SDS011;2383;48.632;10.156;2023-10-13T18:54:16;12.48;;;6.93;;
4738;SDS011;2383;48.632;10.156;2023-10-13T18:58:18;13.77;;;5.18;;
4738;SDS011;2383;48.632;10.156;2023-10-13T19:02:20;12.48;;;5.45;;
4738;SDS011;2383;48.632;10.156;2023-10-13T19:06:22;8.60;;;5.07;;
4738;SDS011;2383;48.632;10.156;2023-10-13T19:10:24;14.75;;;5.20;;
4738;SDS011;2383;48.632;10.156;2023-10-13T19:14:28;8.55;;;5.28;;
4738;SDS011;2383;48.632;10.156;2023-10-13T19:18:31;11.13;;;4.32;;
4738;SDS011;2383;48.632;10.156;2023-10-13T19:22:33;12.65;;;5.75;;
4738;SDS011;2383;48.632;10.156;2023-10-13T19:26:35;8.82;;;5.43;;
4738;SDS011;2383;48.632;10.156;2023-10-13T19:30:39;12.20;;;5.38;;
4738;SDS011;2383;48.632;10.156;2023-10-13T19:34:43;15.30;;;6.13;;
4738;SDS011;2383;48.632;10.156;2023-10-13T19:38:45;16.27;;;5.90;;
4738;SDS011;2383;48.632;10.156;2023-10-13T19:42:49;14.50;;;6.53;;
4738;SDS011;2383;48.632;10.156;2023-10-13T19:46:52;13.38;;;5.70;;
4738;SDS011;2383;48.632;10.156;2023-10-13T19:50:54;15.10;;;5.88;;
4738;SDS011;2383;48.632;10.156;2023-10-13T19:54:56;10.07;;;5.07;;
4738;SDS011;2383;48.632;10.156;2023-10-13T19:58:58;12.43;;;5.25;;
4738;SDS011;2383;48.632;10.156;2023-10-13T20:03:05;9.68;;;5.68;;
4738;SDS011;2383;48.632;10.156;2023-10-13T20:07:10;14.70;;;5.72;;
4738;SDS011;2383;48.632;10.156;2023-10-13T20:11:13;13.23;;;4.65;;
4738;SDS011;2383;48.632;10.156;2023-10-13T20:15:16;13.48;;;5.07;;
4738;SDS011;2383;48.632;10.156;2023-10-13T20:19:19;12.57;;;4.38;;
4738;SDS011;2383;48.632;10.156;2023-10-13T20:23:21;13.00;;;4.55;;
4738;SDS011;2383;48.632;10.156;2023-10-13T20:27:24;10.98;;;4.65;;
4738;SDS011;2383;48.632;10.156;2023-10-13T20:31:26;7.25;;;4.20;;
4738;SDS011;2383;48.632;10.156;2023-10-13T20:35:33;11.88;;;5.90;;
4738;SDS011;2383;48.632;10.156;2023-10-13T20:39:35;10.95;;;5.45;;
4738;SDS011;2383;48.632;10.156;2023-10-13T20:43:37;10.18;;;5.05;;
4738;SDS011;2383;48.632;10.156;2023-10-13T20:47:40;11.20;;;4.30;;
4738;SDS011;2383;48.632;10.156;2023-10-13T20:51:42;14.52;;;5.05;;
4738;SDS011;2383;48.632;10.156;2023-10-13T20:55:44;14.45;;;5.38;;
4738;SDS011;2383;48.632;10.156;2023-10-13T20:59:47;12.00;;;5.13;;
4738;SDS011;2383;48.632;10.156;2023-10-13T21:03:50;10.55;;;4.90;;
4738;SDS011;2383;48.632;10.156;2023-10-13T21:07:53;11.65;;;5.07;;
4738;SDS011;2383;48.632;10.156;2023-10-13T21:11:56;13.10;;;4.57;;
4738;SDS011;2383;48.632;10.156;2023-10-13T21:16:01;17.05;;;5.43;;
4738;SDS011;2383;48.632;10.156;2023-10-13T21:20:03;10.10;;;4.82;;
4738;SDS011;2383;48.632;10.156;2023-10-13T21:24:06;16.60;;;5.40;;
4738;SDS011;2383;48.632;10.156;2023-10-13T21:28:11;10.98;;;5.57;;
4738;SDS011;2383;48.632;10.156;2023-10-13T21:32:13;14.50;;;5.32;;
4738;SDS011;2383;48.632;10.156;2023-10-13T21:36:16;10.30;;;5.43;;
4738;SDS011;2383;48.632;10.156;2023-10-13T21:40:18;8.02;;;5.05;;
4738;SDS011;2383;48.632;10.156;2023-10-13T21:44:20;9.05;;;4.60;;
4738;SDS011;2383;48.632;10.156;2023-10-13T21:48:23;14.30;;;5.50;;
4738;SDS011;2383;48.632;10.156;2023-10-13T21:52:24;8.85;;;5.28;;
4738;SDS011;2383;48.632;10.156;2023-10-13T21:56:27;7.30;;;5.07;;
4738;SDS011;2383;48.632;10.156;2023-10-13T22:00:30;11.77;;;5.30;;
4738;SDS011;2383;48.632;10.156;2023-10-13T22:04:37;16.45;;;5.15;;
4738;SDS011;2383;48.632;10.156;2023-10-13T22:08:39;12.50;;;4.90;;
4738;SDS011;2383;48.632;10.156;2023-10-13T22:12:42;9.85;;;5.45;;
4738;SDS011;2383;48.632;10.156;2023-10-13T22:16:48;8.23;;;4.97;;
4738;SDS011;2383;48.632;10.156;2023-10-13T22:20:50;9.90;;;4.72;;
4738;SDS011;2383;48.632;10.156;2023-10-13T22:24:52;8.93;;;4.82;;
4738;SDS011;2383;48.632;10.156;2023-10-13T22:28:54;12.65;;;5.55;;
4738;SDS011;2383;48.632;10.156;2023-10-13T22:32:57;23.15;;;5.43;;
4738;SDS011;2383;48.632;10.156;2023-10-13T22:36:58;9.52;;;5.30;;
4738;SDS011;2383;48.632;10.156;2023-10-13T22:41:06;10.00;;;4.95;;
4738;SDS011;2383;48.632;10.156;2023-10-13T22:45:14;9.88;;;4.20;;
4738;SDS011;2383;48.632;10.156;2023-10-13T22:49:20;12.50;;;4.07;;
4738;SDS011;2383;48.632;10.156;2023-10-13T22:53:24;7.30;;;4.43;;
4738;SDS011;2383;48.632;10.156;2023-10-13T22:57:26;9.85;;;4.25;;
4738;SDS011;2383;48.632;10.156;2023-10-13T23:01:32;15.60;;;4.85;;
4738;SDS011;2383;48.632;10.156;2023-10-13T23:05:44;6.30;;;4.03;;
4738;SDS011;2383;48.632;10.156;2023-10-13T23:09:52;12.95;;;4.85;;
4738;SDS011;2383;48.632;10.156;2023-10-13T23:13:54;7.75;;;4.75;;
4738;SDS011;2383;48.632;10.156;2023-10-13T23:17:57;9.32;;;4.13;;
4738;SDS011;2383;48.632;10.156;2023-10-13T23:21:59;11.93;;;5.10;;
4738;SDS011;2383;48.632;10.156;2023-10-13T23:26:01;7.90;;;4.70;;
4738;SDS011;2383;48.632;10.156;2023-10-13T23:30:04;6.82;;;4.40;;
4738;SDS011;2383;48.632;10.156;2023-10-13T23:34:07;11.50;;;4.88;;
4738;SDS011;2383;48.632;10.156;2023-10-13T23:38:12;7.60;;;4.68;;
4738;SDS011;2383;48.632;10.156;2023-10-13T23:42:26;11.00;;;4.85;;
4738;SDS011;2383;48.632;10.156;2023-10-13T23:46:28;14.20;;;4.47;;
4738;SDS011;2383;48.632;10.156;2023-10-13T23:50:36;8.85;;;4.13;;
4738;SDS011;2383;48.632;10.156;2023-10-13T23:54:39;8.38;;;4.22;;
4738;SDS011;2383;48.632;10.156;2023-10-13T23:58:42;7.45;;;4.28;;
